createdAt,value
2023-02-02T00:00:55.191Z,4.30
2023-02-02T00:03:22.071Z,4.30
2023-02-02T00:05:52.143Z,4.30
2023-02-02T00:08:20.775Z,4.30
2023-02-02T00:10:47.855Z,4.30
2023-02-02T00:13:14.624Z,4.30
2023-02-02T00:15:41.391Z,4.30
2023-02-02T00:18:08.023Z,4.30
2023-02-02T00:20:34.695Z,4.30
2023-02-02T00:23:01.898Z,4.30
2023-02-02T00:25:28.747Z,4.20
2023-02-02T00:27:55.452Z,4.30
2023-02-02T00:30:22.323Z,4.30
2023-02-02T00:32:50.587Z,4.30
2023-02-02T00:35:17.233Z,4.40
2023-02-02T00:37:43.825Z,4.30
2023-02-02T00:40:11.308Z,4.30
2023-02-02T00:42:37.914Z,4.30
2023-02-02T00:45:17.722Z,4.30
2023-02-02T00:47:48.190Z,4.40
2023-02-02T00:50:19.184Z,4.30
2023-02-02T00:52:46.752Z,4.30
2023-02-02T00:55:14.526Z,4.30
2023-02-02T00:57:41.502Z,4.30
2023-02-02T01:00:12.000Z,4.30
2023-02-02T01:02:38.689Z,4.30
2023-02-02T01:05:06.543Z,4.20
2023-02-02T01:07:33.174Z,4.20
2023-02-02T01:09:59.968Z,4.30
2023-02-02T01:12:26.581Z,4.10
2023-02-02T01:14:53.327Z,4.20
2023-02-02T01:17:21.286Z,4.20
2023-02-02T01:19:47.966Z,4.20
2023-02-02T01:22:14.619Z,4.20
2023-02-02T01:24:41.221Z,4.10
2023-02-02T01:27:07.807Z,4.10
2023-02-02T01:29:34.470Z,4.10
2023-02-02T01:32:01.218Z,4.20
2023-02-02T01:34:27.883Z,4.10
2023-02-02T01:36:54.480Z,4.20
2023-02-02T01:39:21.082Z,4.20
2023-02-02T01:41:48.075Z,4.20
2023-02-02T01:44:52.643Z,4.10
2023-02-02T01:47:26.960Z,4.20
2023-02-02T01:49:55.176Z,4.20
2023-02-02T01:52:24.170Z,4.20
2023-02-02T01:55:09.874Z,4.20
2023-02-02T01:57:59.267Z,4.20
2023-02-02T02:00:27.640Z,4.20
2023-02-02T02:03:01.016Z,4.20
2023-02-02T02:05:35.377Z,4.20
2023-02-02T02:08:15.157Z,4.20
2023-02-02T02:10:41.966Z,4.10
2023-02-02T02:13:08.872Z,4.10
2023-02-02T02:16:12.563Z,4.10
2023-02-02T02:19:09.607Z,4.20
2023-02-02T02:22:04.011Z,4.10
2023-02-02T02:25:01.477Z,4.20
2023-02-02T02:28:01.003Z,4.10
2023-02-02T02:30:45.350Z,4.10
2023-02-02T02:33:33.683Z,4.10
2023-02-02T02:36:17.576Z,4.10
2023-02-02T02:39:13.774Z,4.10
2023-02-02T02:41:48.983Z,4.00
2023-02-02T02:44:19.496Z,4.00
2023-02-02T02:46:47.954Z,4.00
2023-02-02T02:49:14.711Z,4.10
2023-02-02T02:51:47.237Z,4.10
2023-02-02T02:54:27.036Z,4.10
2023-02-02T02:57:15.956Z,4.10
2023-02-02T03:00:01.195Z,4.10
2023-02-02T03:02:35.602Z,4.10
2023-02-02T03:05:07.538Z,4.10
2023-02-02T03:07:34.236Z,4.10
2023-02-02T03:10:02.381Z,4.10
2023-02-02T03:12:29.081Z,4.00
2023-02-02T03:14:55.690Z,4.10
2023-02-02T03:17:22.839Z,4.10
2023-02-02T03:19:49.511Z,4.10
2023-02-02T03:22:16.207Z,4.10
2023-02-02T03:24:42.878Z,4.10
2023-02-02T03:27:09.547Z,4.10
2023-02-02T03:29:36.987Z,4.20
2023-02-02T03:32:05.828Z,4.20
2023-02-02T03:34:32.455Z,4.20
2023-02-02T03:36:59.173Z,4.30
2023-02-02T03:39:25.771Z,4.30
2023-02-02T03:41:52.431Z,4.30
2023-02-02T03:44:19.054Z,4.30
2023-02-02T03:46:45.999Z,4.30
2023-02-02T03:49:12.708Z,4.40
2023-02-02T03:51:39.382Z,4.40
2023-02-02T03:54:06.095Z,4.40
2023-02-02T03:56:32.816Z,4.40
2023-02-02T03:58:59.467Z,4.30
2023-02-02T04:01:30.394Z,4.40
2023-02-02T04:03:58.388Z,4.40
2023-02-02T04:06:25.893Z,4.40
2023-02-02T04:08:52.811Z,4.40
2023-02-02T04:11:20.026Z,4.40
2023-02-02T04:13:46.891Z,4.40
2023-02-02T04:16:13.824Z,4.40
2023-02-02T04:18:40.608Z,4.50
2023-02-02T04:21:08.479Z,4.40
2023-02-02T04:23:35.162Z,4.40
2023-02-02T04:26:01.815Z,4.30
2023-02-02T04:28:28.784Z,4.40
2023-02-02T04:30:55.954Z,4.40
2023-02-02T04:33:23.953Z,4.40
2023-02-02T04:35:50.682Z,4.50
2023-02-02T04:38:17.344Z,4.50
2023-02-02T04:40:45.977Z,4.50
2023-02-02T04:43:15.993Z,4.40
2023-02-02T04:45:42.860Z,4.40
2023-02-02T04:48:09.743Z,4.30
2023-02-02T04:50:36.417Z,4.30
2023-02-02T04:53:03.713Z,4.30
2023-02-02T04:55:30.459Z,4.30
2023-02-02T04:57:57.068Z,4.30
2023-02-02T05:00:23.805Z,4.40
2023-02-02T05:02:50.483Z,4.40
2023-02-02T05:05:17.144Z,4.40
2023-02-02T05:07:43.774Z,4.30
2023-02-02T05:10:11.236Z,4.40
2023-02-02T05:12:37.880Z,4.40
2023-02-02T05:15:05.489Z,4.30
2023-02-02T05:17:32.408Z,4.30
2023-02-02T05:19:59.022Z,4.30
2023-02-02T05:22:25.804Z,4.40
2023-02-02T05:24:52.510Z,4.40
2023-02-02T05:27:19.117Z,4.40
2023-02-02T05:29:47.413Z,4.40
2023-02-02T05:32:14.669Z,4.40
2023-02-02T05:34:41.295Z,4.30
2023-02-02T05:37:07.921Z,4.20
2023-02-02T05:39:34.650Z,4.20
2023-02-02T05:42:01.363Z,4.10
2023-02-02T05:44:28.072Z,4.10
2023-02-02T05:46:54.914Z,4.00
2023-02-02T05:49:21.546Z,4.10
2023-02-02T05:51:51.805Z,4.10
2023-02-02T05:54:20.435Z,4.00
2023-02-02T05:56:48.419Z,3.80
2023-02-02T05:59:15.331Z,3.80
2023-02-02T06:01:46.335Z,3.80
2023-02-02T06:04:13.875Z,3.90
2023-02-02T06:06:41.359Z,3.80
2023-02-02T06:09:08.689Z,3.80
2023-02-02T06:11:35.422Z,3.90
2023-02-02T06:14:02.147Z,3.80
2023-02-02T06:16:28.745Z,3.80
2023-02-02T06:18:55.544Z,3.80
2023-02-02T06:21:24.366Z,3.80
2023-02-02T06:23:51.935Z,3.80
2023-02-02T06:26:19.540Z,3.70
2023-02-02T06:28:51.426Z,3.80
2023-02-02T06:31:19.409Z,3.90
2023-02-02T06:33:47.612Z,3.70
2023-02-02T06:36:14.576Z,3.70
2023-02-02T06:38:41.360Z,3.60
2023-02-02T06:41:08.024Z,3.50
2023-02-02T06:43:34.739Z,3.50
2023-02-02T06:46:01.468Z,3.50
2023-02-02T06:48:28.368Z,3.50
2023-02-02T06:50:58.896Z,3.50
2023-02-02T06:53:26.564Z,3.50
2023-02-02T06:56:01.433Z,3.50
2023-02-02T06:58:29.715Z,3.60
2023-02-02T07:01:08.435Z,3.60
2023-02-02T07:03:35.703Z,3.60
2023-02-02T07:06:16.539Z,3.50
2023-02-02T07:08:43.479Z,3.60
2023-02-02T07:11:15.319Z,3.40
2023-02-02T07:13:44.577Z,3.40
2023-02-02T07:16:12.965Z,3.40
2023-02-02T07:18:40.479Z,3.30
2023-02-02T07:21:07.224Z,3.30
2023-02-02T07:23:34.445Z,3.30
2023-02-02T07:26:09.679Z,3.40
2023-02-02T07:28:36.583Z,3.30
2023-02-02T07:31:35.824Z,3.30
2023-02-02T07:34:03.351Z,3.30
2023-02-02T07:36:30.032Z,3.30
2023-02-02T07:39:01.889Z,3.20
2023-02-02T07:41:28.542Z,3.10
2023-02-02T07:43:55.192Z,3.10
2023-02-02T07:46:22.393Z,3.00
2023-02-02T07:48:49.176Z,2.90
2023-02-02T07:51:17.797Z,2.80
2023-02-02T07:53:46.293Z,2.80
2023-02-02T07:56:15.476Z,2.80
2023-02-02T07:58:43.196Z,2.80
2023-02-02T08:01:11.829Z,2.70
2023-02-02T08:03:39.576Z,2.70
2023-02-02T08:06:33.560Z,2.60
2023-02-02T08:09:01.792Z,2.50
2023-02-02T08:11:29.032Z,2.50
2023-02-02T08:13:58.997Z,2.40
2023-02-02T08:16:30.605Z,2.40
2023-02-02T08:18:58.578Z,2.30
2023-02-02T08:21:25.532Z,2.30
2023-02-02T08:23:53.570Z,2.30
2023-02-02T08:26:28.243Z,2.20
2023-02-02T08:29:06.656Z,2.20
2023-02-02T08:31:41.668Z,2.10
2023-02-02T08:34:08.847Z,2.10
2023-02-02T08:36:35.588Z,2.10
2023-02-02T08:39:05.003Z,2.00
2023-02-02T08:41:32.374Z,2.00
2023-02-02T08:43:59.168Z,2.00
2023-02-02T08:46:26.181Z,1.90
2023-02-02T08:48:52.947Z,1.80
2023-02-02T08:51:20.070Z,1.80
2023-02-02T08:53:46.898Z,1.80
2023-02-02T08:56:16.501Z,1.80
2023-02-02T08:58:52.398Z,1.80
2023-02-02T09:01:22.105Z,1.80
2023-02-02T09:03:48.986Z,1.80
2023-02-02T09:06:17.898Z,1.90
2023-02-02T09:08:45.717Z,1.80
2023-02-02T09:11:17.508Z,1.90
2023-02-02T09:13:45.993Z,1.90
2023-02-02T09:16:14.536Z,1.90
2023-02-02T09:18:42.060Z,1.90
2023-02-02T09:21:11.863Z,1.90
2023-02-02T09:23:40.783Z,1.80
2023-02-02T09:26:15.374Z,1.80
2023-02-02T09:28:45.069Z,1.70
2023-02-02T09:31:12.002Z,1.80
2023-02-02T09:33:39.355Z,1.70
2023-02-02T09:36:14.325Z,1.70
2023-02-02T09:38:41.979Z,1.70
2023-02-02T09:41:29.930Z,1.70
2023-02-02T09:44:18.905Z,1.70
2023-02-02T09:46:51.258Z,1.70
2023-02-02T09:49:25.574Z,1.70
2023-02-02T09:52:01.852Z,1.70
2023-02-02T09:54:44.673Z,1.70
2023-02-02T09:57:20.812Z,1.70
2023-02-02T09:59:50.690Z,1.70
2023-02-02T10:02:23.839Z,1.70
2023-02-02T10:04:55.961Z,1.70
2023-02-02T10:07:35.206Z,1.80
2023-02-02T10:10:11.538Z,1.80
2023-02-02T10:12:52.798Z,1.80
2023-02-02T10:15:40.983Z,1.90
2023-02-02T10:18:10.742Z,1.90
2023-02-02T10:21:00.560Z,1.90
2023-02-02T10:23:41.451Z,2.00
2023-02-02T10:26:28.983Z,1.90
2023-02-02T10:29:48.533Z,1.90
2023-02-02T10:32:26.643Z,1.90
2023-02-02T10:35:11.090Z,1.90
2023-02-02T10:38:21.556Z,1.90
2023-02-02T10:41:30.287Z,1.90
2023-02-02T10:44:29.022Z,1.90
2023-02-02T10:47:00.298Z,1.80
2023-02-02T10:49:36.553Z,1.80
2023-02-02T10:52:19.679Z,1.80
2023-02-02T10:55:11.521Z,1.80
2023-02-02T10:57:56.896Z,1.80
2023-02-02T11:00:23.938Z,1.80
2023-02-02T11:02:52.945Z,1.80
2023-02-02T11:05:49.192Z,1.90
2023-02-02T11:08:31.327Z,1.90
2023-02-02T11:11:01.188Z,2.00
2023-02-02T11:13:36.874Z,2.00
2023-02-02T11:16:15.824Z,2.10
2023-02-02T11:18:44.321Z,2.00
2023-02-02T11:21:32.446Z,2.00
2023-02-02T11:24:02.276Z,2.00
2023-02-02T11:27:13.217Z,2.00
2023-02-02T11:29:39.864Z,2.00
2023-02-02T11:32:32.692Z,2.10
2023-02-02T11:35:02.524Z,2.10
2023-02-02T11:37:30.329Z,2.20
2023-02-02T11:40:24.500Z,2.20
2023-02-02T11:42:52.730Z,2.10
2023-02-02T11:45:43.209Z,2.10
2023-02-02T11:48:17.537Z,2.10
2023-02-02T11:50:57.035Z,2.10
2023-02-02T11:53:47.830Z,2.10
2023-02-02T11:56:25.317Z,2.10
2023-02-02T11:58:59.576Z,2.10
2023-02-02T12:01:31.405Z,2.10
2023-02-02T12:04:01.562Z,2.00
2023-02-02T12:06:38.296Z,2.00
2023-02-02T12:09:23.945Z,2.00
2023-02-02T12:12:15.004Z,2.00
2023-02-02T12:14:51.089Z,2.00
2023-02-02T12:17:35.159Z,2.00
2023-02-02T12:20:21.579Z,2.00
2023-02-02T12:23:15.672Z,2.00
2023-02-02T12:26:14.764Z,1.90
2023-02-02T12:29:07.756Z,1.90
2023-02-02T12:32:08.200Z,1.90
2023-02-02T12:34:40.853Z,1.90
2023-02-02T12:37:52.734Z,1.90
2023-02-02T12:40:29.997Z,2.00
2023-02-02T12:43:00.409Z,2.10
2023-02-02T12:45:36.777Z,2.10
2023-02-02T12:48:30.159Z,2.10
2023-02-02T12:51:31.163Z,2.20
2023-02-02T12:54:34.903Z,2.20
2023-02-02T12:57:03.143Z,2.20
2023-02-02T13:00:13.896Z,2.20
2023-02-02T13:03:33.092Z,2.20
2023-02-02T13:06:16.404Z,2.20
2023-02-02T13:08:52.724Z,2.10
2023-02-02T13:11:49.899Z,2.20
2023-02-02T13:14:26.097Z,2.10
2023-02-02T13:17:01.237Z,2.20
2023-02-02T13:19:39.658Z,2.20
2023-02-02T13:22:10.632Z,2.20
2023-02-02T13:24:40.332Z,2.20
2023-02-02T13:27:12.742Z,2.20
2023-02-02T13:29:48.713Z,2.20
2023-02-02T13:32:31.916Z,2.20
2023-02-02T13:35:19.949Z,2.20
2023-02-02T13:37:54.417Z,2.20
2023-02-02T13:40:32.451Z,2.20
2023-02-02T13:43:05.571Z,2.20
2023-02-02T13:46:00.918Z,2.30
2023-02-02T13:48:48.967Z,2.30
2023-02-02T13:51:18.641Z,2.20
2023-02-02T13:54:08.588Z,2.20
2023-02-02T13:56:51.273Z,2.20
2023-02-02T13:59:41.768Z,2.20
2023-02-02T14:02:30.897Z,2.10
2023-02-02T14:05:00.620Z,2.00
2023-02-02T14:07:43.255Z,2.00
2023-02-02T14:10:26.568Z,1.90
2023-02-02T14:12:55.169Z,1.90
2023-02-02T14:15:43.206Z,1.90
2023-02-02T14:18:09.898Z,1.80
2023-02-02T14:20:46.332Z,1.80
2023-02-02T14:23:51.216Z,1.70
2023-02-02T14:26:39.200Z,1.70
2023-02-02T14:29:37.341Z,1.70
2023-02-02T14:32:07.201Z,1.70
2023-02-02T14:34:36.392Z,1.80
2023-02-02T14:37:24.471Z,1.70
2023-02-02T14:39:56.946Z,1.80
2023-02-02T14:43:09.226Z,1.80
2023-02-02T14:45:42.322Z,1.70
2023-02-02T14:48:21.282Z,1.70
2023-02-02T14:50:58.119Z,1.80
2023-02-02T14:53:31.615Z,1.80
2023-02-02T14:56:14.849Z,1.80
2023-02-02T14:58:47.253Z,1.80
2023-02-02T15:01:17.189Z,1.80
2023-02-02T15:03:45.337Z,1.90
2023-02-02T15:06:34.731Z,1.90
2023-02-02T15:09:20.307Z,2.00
2023-02-02T15:12:01.250Z,2.00
2023-02-02T15:14:53.375Z,2.00
2023-02-02T15:17:38.685Z,2.00
2023-02-02T15:20:21.112Z,2.00
2023-02-02T15:22:47.992Z,2.10
2023-02-02T15:25:41.263Z,2.10
2023-02-02T15:28:17.482Z,2.20
2023-02-02T15:30:47.227Z,2.10
2023-02-02T15:33:39.884Z,2.10
2023-02-02T15:36:13.471Z,2.20
2023-02-02T15:38:42.958Z,2.20
2023-02-02T15:41:20.753Z,2.20
2023-02-02T15:43:47.699Z,2.20
2023-02-02T15:46:24.141Z,2.30
2023-02-02T15:49:33.897Z,2.30
2023-02-02T15:52:12.626Z,2.30
2023-02-02T15:54:53.042Z,2.30
2023-02-02T15:57:33.289Z,2.40
2023-02-02T16:00:01.785Z,2.40
2023-02-02T16:02:42.470Z,2.40
2023-02-02T16:05:36.866Z,2.30
2023-02-02T16:08:20.983Z,2.20
2023-02-02T16:10:50.538Z,2.20
2023-02-02T16:13:23.662Z,2.10
2023-02-02T16:16:02.319Z,2.00
2023-02-02T16:18:30.372Z,2.10
2023-02-02T16:21:01.050Z,2.20
2023-02-02T16:23:35.948Z,2.20
2023-02-02T16:26:04.629Z,2.20
2023-02-02T16:28:32.041Z,2.20
2023-02-02T16:31:03.201Z,2.30
2023-02-02T16:33:37.133Z,2.30
2023-02-02T16:36:26.212Z,2.20
2023-02-02T16:38:54.084Z,2.20
2023-02-02T16:41:36.508Z,2.30
2023-02-02T16:44:36.055Z,2.20
2023-02-02T16:47:04.512Z,2.20
2023-02-02T16:49:31.338Z,2.10
2023-02-02T16:52:09.270Z,2.10
2023-02-02T16:54:36.532Z,2.10
2023-02-02T16:57:05.031Z,2.10
2023-02-02T16:59:33.784Z,2.10
2023-02-02T17:02:04.781Z,2.20
2023-02-02T17:04:33.999Z,2.20
2023-02-02T17:07:13.060Z,2.20
2023-02-02T17:09:42.279Z,2.20
2023-02-02T17:12:30.777Z,2.30
2023-02-02T17:15:19.615Z,2.30
2023-02-02T17:17:49.326Z,2.30
2023-02-02T17:20:17.644Z,2.20
2023-02-02T17:22:50.666Z,2.30
2023-02-02T17:25:40.478Z,2.30
2023-02-02T17:28:11.730Z,2.30
2023-02-02T17:30:47.143Z,2.30
2023-02-02T17:33:16.094Z,2.30
2023-02-02T17:35:54.125Z,2.40
2023-02-02T17:38:23.381Z,2.50
2023-02-02T17:40:50.603Z,2.50
2023-02-02T17:43:17.268Z,2.50
2023-02-02T17:45:44.099Z,2.50
2023-02-02T17:48:12.478Z,2.50
2023-02-02T17:50:40.873Z,2.50
2023-02-02T17:53:18.295Z,2.50
2023-02-02T17:55:46.813Z,2.50
2023-02-02T17:58:16.982Z,2.60
2023-02-02T18:00:49.519Z,2.60
2023-02-02T18:03:23.981Z,2.60
2023-02-02T18:05:51.039Z,2.60
2023-02-02T18:08:18.069Z,2.70
2023-02-02T18:10:44.832Z,2.80
2023-02-02T18:13:15.772Z,2.70
2023-02-02T18:15:43.334Z,2.80
2023-02-02T18:18:12.223Z,2.80
2023-02-02T18:20:49.985Z,2.80
2023-02-02T18:23:18.517Z,2.80
2023-02-02T18:25:45.290Z,2.70
2023-02-02T18:28:15.176Z,2.80
2023-02-02T18:30:43.192Z,2.80
2023-02-02T18:33:11.068Z,2.90
2023-02-02T18:35:45.802Z,3.00
2023-02-02T18:38:13.027Z,3.00
2023-02-02T18:40:40.221Z,3.10
2023-02-02T18:43:07.038Z,3.10
2023-02-02T18:45:33.738Z,3.10
2023-02-02T18:48:00.341Z,3.20
2023-02-02T18:50:27.242Z,3.50
2023-02-02T18:52:54.271Z,3.80
2023-02-02T18:55:21.055Z,4.00
2023-02-02T18:57:47.694Z,4.20
2023-02-02T19:00:15.146Z,4.40
2023-02-02T19:02:42.022Z,4.50
2023-02-02T19:05:30.546Z,4.60
2023-02-02T19:07:57.990Z,4.80
2023-02-02T19:10:27.046Z,4.90
2023-02-02T19:13:05.811Z,5.00
2023-02-02T19:15:39.165Z,5.20
2023-02-02T19:18:14.112Z,5.40
2023-02-02T19:20:41.748Z,5.40
2023-02-02T19:23:17.371Z,5.50
2023-02-02T19:25:49.512Z,5.60
2023-02-02T19:28:26.263Z,5.60
2023-02-02T19:30:54.867Z,5.60
2023-02-02T19:33:21.616Z,5.60
2023-02-02T19:35:52.772Z,5.70
2023-02-02T19:38:20.493Z,5.80
2023-02-02T19:40:47.897Z,5.80
2023-02-02T19:43:26.151Z,5.80
2023-02-02T19:45:54.053Z,5.80
2023-02-02T19:48:26.130Z,5.90
2023-02-02T19:50:54.591Z,5.90
2023-02-02T19:53:29.554Z,5.90
2023-02-02T19:55:56.154Z,5.90
2023-02-02T19:58:26.256Z,5.90
2023-02-02T20:00:55.641Z,5.90
2023-02-02T20:03:43.044Z,5.90
2023-02-02T20:06:23.867Z,6.00
2023-02-02T20:08:50.789Z,6.00
2023-02-02T20:11:23.788Z,6.00
2023-02-02T20:13:51.634Z,6.00
2023-02-02T20:16:24.359Z,6.00
2023-02-02T20:18:53.787Z,6.00
2023-02-02T20:21:34.175Z,6.00
2023-02-02T20:24:00.951Z,6.00
2023-02-02T20:26:34.309Z,6.10
2023-02-02T20:29:15.758Z,6.10
2023-02-02T20:31:42.380Z,6.10
2023-02-02T20:34:40.666Z,6.10
2023-02-02T20:37:13.504Z,6.10
2023-02-02T20:39:50.264Z,6.10
2023-02-02T20:42:17.115Z,6.10
2023-02-02T20:44:44.315Z,6.10
2023-02-02T20:47:12.276Z,6.20
2023-02-02T20:49:39.240Z,6.10
2023-02-02T20:52:10.585Z,6.20
2023-02-02T20:54:38.416Z,6.20
2023-02-02T20:57:05.663Z,6.20
2023-02-02T20:59:32.885Z,6.20
2023-02-02T21:02:01.035Z,6.20
2023-02-02T21:04:28.020Z,6.30
2023-02-02T21:06:55.350Z,6.30
2023-02-02T21:09:22.484Z,6.30
2023-02-02T21:11:49.123Z,6.20
2023-02-02T21:14:15.982Z,6.20
2023-02-02T21:16:42.749Z,6.30
2023-02-02T21:19:09.454Z,6.30
2023-02-02T21:21:36.392Z,6.30
2023-02-02T21:24:04.066Z,6.30
2023-02-02T21:26:31.079Z,6.30
2023-02-02T21:28:58.389Z,6.30
2023-02-02T21:31:25.843Z,6.30
2023-02-02T21:33:53.136Z,6.30
2023-02-02T21:36:37.951Z,6.30
2023-02-02T21:39:24.708Z,6.30
2023-02-02T21:41:58.518Z,6.30
2023-02-02T21:44:26.797Z,6.30
2023-02-02T21:46:53.475Z,6.40
2023-02-02T21:49:23.809Z,6.40
2023-02-02T21:51:51.755Z,6.40
2023-02-02T21:54:27.601Z,6.40
2023-02-02T21:56:55.024Z,6.40
2023-02-02T21:59:23.744Z,6.40
2023-02-02T22:01:51.832Z,6.40
2023-02-02T22:04:19.904Z,6.40
2023-02-02T22:07:14.972Z,6.40
2023-02-02T22:09:43.645Z,6.40
2023-02-02T22:12:28.348Z,6.40
2023-02-02T22:15:00.182Z,6.40
2023-02-02T22:17:39.923Z,6.40
2023-02-02T22:20:15.872Z,6.40
2023-02-02T22:22:46.275Z,6.50
2023-02-02T22:25:20.810Z,6.50
2023-02-02T22:27:53.751Z,6.50
2023-02-02T22:30:26.512Z,6.50
2023-02-02T22:32:54.274Z,6.50
2023-02-02T22:35:21.259Z,6.50
2023-02-02T22:37:47.889Z,6.50
2023-02-02T22:40:16.264Z,6.50
2023-02-02T22:42:43.322Z,6.50
2023-02-02T22:45:10.445Z,6.50
2023-02-02T22:47:37.287Z,6.50
2023-02-02T22:50:04.174Z,6.50
2023-02-02T22:52:30.801Z,6.50
2023-02-02T22:54:57.412Z,6.60
2023-02-02T22:57:23.994Z,6.60
2023-02-02T22:59:50.791Z,6.60
2023-02-02T23:02:17.545Z,6.60
2023-02-02T23:04:44.246Z,6.60
2023-02-02T23:07:10.844Z,6.60
2023-02-02T23:09:37.505Z,6.70
2023-02-02T23:12:04.332Z,6.60
2023-02-02T23:14:30.945Z,6.60
2023-02-02T23:16:57.707Z,6.60
2023-02-02T23:19:24.375Z,6.70
2023-02-02T23:21:51.083Z,6.70
2023-02-02T23:24:17.655Z,6.70
2023-02-02T23:26:44.231Z,6.70
2023-02-02T23:29:10.947Z,6.70
2023-02-02T23:31:37.570Z,6.70
2023-02-02T23:34:04.161Z,6.70
2023-02-02T23:36:30.809Z,6.70
2023-02-02T23:38:57.436Z,6.70
2023-02-02T23:41:24.135Z,6.70
2023-02-02T23:43:50.737Z,6.70
2023-02-02T23:46:17.876Z,6.70
2023-02-02T23:48:44.897Z,6.70
2023-02-02T23:51:12.186Z,6.70
2023-02-02T23:53:38.999Z,6.70
2023-02-02T23:56:05.844Z,6.70
2023-02-02T23:58:32.438Z,6.70
